Time;durP1;ratioP1;P1;durP2;ratioP2;P2;SDS_P1;SDS_P2;PMS_P1;PMS_P2;Temp;Humidity;BMP_temperature;BMP_pressure;BME280_temperature;BME280_humidity;BME280_pressure;Samples;Min_cycle;Max_cycle;Signal;HPM_P1;HPM_P2
2021/11/17 02:27:47;;;;;;;8.52;5.38;;;;;;;5.33;63.88;94355.22;5014330;28;20036;-75
2021/11/17 02:30:26;;;;;;;8.07;5.40;;;;;;;5.61;62.85;94354.63;5016713;28;20045;-75
2021/11/17 02:33:16;;;;;;;9.35;5.47;;;;;;;5.08;64.95;94354.19;5015416;28;20069;-74
2021/11/17 02:35:59;;;;;;;12.43;6.35;;;;;;;5.39;63.94;94360.19;5018512;28;20499;-74
2021/11/17 02:38:24;;;;;;;8.82;6.15;;;;;;;5.25;63.77;94355.75;5013226;28;20053;-74
2021/11/17 02:41:09;;;;;;;11.75;7.38;;;;;;;5.54;63.20;94356.75;5015966;28;20029;-74
2021/11/17 02:44:02;;;;;;;9.90;5.82;;;;;;;5.69;62.17;94359.34;5023832;28;20668;-73
2021/11/17 02:46:43;;;;;;;10.25;6.53;;;;;;;5.42;62.95;94356.25;5015542;28;20139;-75
2021/11/17 02:49:26;;;;;;;10.73;5.85;;;;;;;5.22;63.64;94361.56;5018689;28;20041;-74
2021/11/17 02:52:02;;;;;;;10.02;6.50;;;;;;;4.92;64.08;94360.53;5028231;28;20041;-75
2021/11/17 02:55:01;;;;;;;14.73;8.18;;;;;;;4.70;63.41;94342.31;5036049;28;20041;-75
2021/11/17 02:57:39;;;;;;;18.33;7.70;;;;;;;5.02;63.28;94363.16;5020423;28;20104;-75
2021/11/17 03:00:22;;;;;;;15.10;7.35;;;;;;;4.80;64.48;94352.09;5021596;28;20416;-75
2021/11/17 03:03:06;;;;;;;14.40;8.13;;;;;;;4.61;65.93;94357.09;5024094;28;20034;-76
2021/11/17 03:05:50;;;;;;;13.02;7.60;;;;;;;4.54;66.54;94353.13;5027167;28;20101;-75
2021/11/17 03:08:38;;;;;;;16.40;7.32;;;;;;;4.48;66.79;94365.50;5024779;28;20025;-74
2021/11/17 03:11:39;;;;;;;13.25;7.28;;;;;;;5.19;64.66;94359.47;5019986;28;20358;-74
2021/11/17 03:14:23;;;;;;;12.20;7.90;;;;;;;5.25;63.31;94355.75;5016869;28;20049;-73
2021/11/17 03:17:05;;;;;;;17.00;7.43;;;;;;;5.24;63.34;94354.16;5013536;28;20056;-72
2021/11/17 03:19:39;;;;;;;16.48;7.10;;;;;;;5.65;61.48;94357.50;5023978;28;20634;-75
2021/11/17 03:22:11;;;;;;;16.20;8.30;;;;;;;5.61;60.38;94354.63;5023608;28;20070;-75
2021/11/17 03:24:49;;;;;;;15.85;7.68;;;;;;;5.66;59.53;94351.97;5023815;28;20585;-74
2021/11/17 03:27:33;;;;;;;13.77;7.20;;;;;;;5.79;59.27;94348.75;5023333;28;20412;-72
2021/11/17 03:30:14;;;;;;;13.07;7.60;;;;;;;5.56;59.54;94344.09;5027926;28;20041;-75
2021/11/17 03:32:54;;;;;;;10.52;6.10;;;;;;;5.45;59.73;94348.59;5020066;28;20257;-75
2021/11/17 03:35:48;;;;;;;15.48;7.47;;;;;;;5.63;59.95;94347.22;5027262;28;20145;-74
2021/11/17 03:38:32;;;;;;;16.45;7.68;;;;;;;5.69;59.82;94346.16;5027915;28;20389;-74
2021/11/17 03:41:00;;;;;;;13.52;7.10;;;;;;;5.99;59.48;94347.88;5027466;28;20024;-74
2021/11/17 03:43:47;;;;;;;14.80;7.70;;;;;;;5.90;59.03;94331.03;5025800;28;20045;-75
2021/11/17 03:46:41;;;;;;;11.55;6.47;;;;;;;6.00;59.01;94339.69;5027530;28;20044;-75
2021/11/17 03:49:13;;;;;;;14.93;6.75;;;;;;;5.82;59.06;94321.81;5019916;28;20483;-72
2021/11/17 03:52:07;;;;;;;11.25;6.47;;;;;;;5.57;59.19;94335.13;5024115;28;20045;-74
2021/11/17 03:54:40;;;;;;;12.55;7.55;;;;;;;5.63;59.81;94339.28;5010715;28;20065;-75
2021/11/17 03:57:40;;;;;;;13.50;7.57;;;;;;;5.65;59.91;94336.41;5007049;28;20057;-74
2021/11/17 04:00:11;;;;;;;15.50;7.32;;;;;;;5.48;59.85;94337.50;5027371;28;20120;-75
2021/11/17 04:03:15;;;;;;;11.93;6.60;;;;;;;5.29;59.77;94330.41;5023728;28;20041;-75
2021/11/17 04:06:07;;;;;;;11.52;7.00;;;;;;;5.20;61.35;94339.94;5026435;28;20076;-75
2021/11/17 04:08:38;;;;;;;12.80;8.55;;;;;;;5.07;62.07;94339.44;5017076;28;20095;-76
2021/11/17 04:11:29;;;;;;;13.73;7.80;;;;;;;4.96;62.40;94337.06;5021107;28;20103;-75
2021/11/17 04:14:13;;;;;;;19.52;8.93;;;;;;;4.84;63.23;94336.56;5022037;28;20045;-76
2021/11/17 04:16:57;;;;;;;17.92;8.73;;;;;;;5.10;62.33;94328.34;5022084;28;20072;-78
2021/11/17 04:19:25;;;;;;;13.77;8.68;;;;;;;5.25;61.86;94329.38;5020349;28;20117;-75
2021/11/17 04:22:28;;;;;;;13.40;8.13;;;;;;;5.25;61.68;94337.28;5022592;28;20048;-73
2021/11/17 04:25:04;;;;;;;17.20;8.60;;;;;;;5.29;60.95;94338.31;5023151;28;20033;-76
2021/11/17 04:27:37;;;;;;;14.40;7.13;;;;;;;5.23;60.63;94342.06;5021338;28;20057;-76
2021/11/17 04:30:37;;;;;;;15.35;8.57;;;;;;;5.47;59.61;94340.41;5025856;28;20045;-75
2021/11/17 04:33:11;;;;;;;16.92;7.97;;;;;;;5.28;59.54;94342.03;5017421;28;20049;-74
2021/11/17 04:35:45;;;;;;;18.27;7.28;;;;;;;5.16;59.91;94349.44;5018352;28;20048;-75
2021/11/17 04:38:14;;;;;;;17.23;8.90;;;;;;;5.09;60.99;94342.56;5024263;28;20076;-75
2021/11/17 04:41:04;;;;;;;20.45;10.13;;;;;;;5.25;61.11;94339.91;5018528;28;20508;-73
2021/11/17 04:43:35;;;;;;;16.08;7.60;;;;;;;5.75;60.31;94339.00;5020078;28;20091;-76
2021/11/17 04:46:22;;;;;;;19.70;8.95;;;;;;;5.55;59.84;94340.66;5020004;28;20034;-75
2021/11/17 04:49:42;;;;;;;18.67;8.40;;;;;;;5.54;59.39;94328.50;5020243;28;20132;-75
2021/11/17 04:52:32;;;;;;;13.25;7.35;;;;;;;5.58;59.95;94320.84;4984087;28;20548;-75
2021/11/17 04:55:17;;;;;;;14.75;7.75;;;;;;;5.85;59.06;94336.31;5033930;28;20045;-76
2021/11/17 04:58:27;;;;;;;18.70;9.15;;;;;;;5.34;62.29;94341.75;5021701;28;20044;-75
2021/11/17 05:00:52;;;;;;;14.88;7.20;;;;;;;5.63;62.45;94346.44;5020655;28;20052;-75
2021/11/17 05:03:26;;;;;;;15.98;8.27;;;;;;;5.35;63.32;94350.47;5029942;28;20515;-76
2021/11/17 05:06:04;;;;;;;18.67;8.32;;;;;;;5.26;64.86;94349.41;5032441;28;20527;-75
2021/11/17 05:08:38;;;;;;;17.05;8.43;;;;;;;4.91;66.50;94353.66;5029508;28;20037;-76
2021/11/17 05:11:28;;;;;;;20.35;8.88;;;;;;;4.94;66.40;94347.84;5024712;28;20647;-75
2021/11/17 05:14:32;;;;;;;15.05;7.93;;;;;;;4.53;68.30;94347.06;5020364;28;20053;-76
2021/11/17 05:17:24;;;;;;;11.57;7.30;;;;;;;4.48;69.15;94356.81;5027718;28;20045;-77
2021/11/17 05:19:58;;;;;;;12.27;7.15;;;;;;;4.75;68.67;94351.31;5027613;28;20045;-76
2021/11/17 05:22:39;;;;;;;13.93;6.90;;;;;;;4.83;68.54;94351.56;5024151;28;20048;-77
2021/11/17 05:25:29;;;;;;;14.10;8.38;;;;;;;4.89;67.94;94358.44;5027058;28;20959;-76
2021/11/17 05:28:19;;;;;;;13.07;7.32;;;;;;;4.89;67.66;94361.06;5025025;28;21110;-76
2021/11/17 05:31:07;;;;;;;15.60;6.88;;;;;;;5.13;66.65;94366.59;5027059;28;20044;-76
2021/11/17 05:34:10;;;;;;;14.20;6.13;;;;;;;5.51;65.48;94362.56;5031038;28;20060;-76
2021/11/17 05:37:18;;;;;;;12.48;7.03;;;;;;;5.16;65.93;94366.06;5030585;28;20056;-74
2021/11/17 05:39:56;;;;;;;11.27;6.25;;;;;;;5.25;65.30;94338.06;5036199;28;20409;-75
2021/11/17 05:42:30;;;;;;;18.60;7.15;;;;;;;5.24;65.13;94367.34;5028639;28;20037;-73
2021/11/17 05:45:24;;;;;;;10.50;5.95;;;;;;;5.67;63.81;94361.47;5020915;28;20018;-74
2021/11/17 05:48:02;;;;;;;12.10;6.75;;;;;;;5.35;64.99;94369.72;5024753;28;20037;-76
2021/11/17 05:50:43;;;;;;;12.85;6.30;;;;;;;5.25;64.79;94367.09;5026876;28;20052;-76
2021/11/17 05:53:11;;;;;;;13.07;7.20;;;;;;;5.31;65.24;94368.66;5025815;28;20034;-75
2021/11/17 05:55:43;;;;;;;15.52;8.05;;;;;;;5.14;64.84;94376.84;5029253;28;20036;-76
2021/11/17 05:58:30;;;;;;;13.85;7.93;;;;;;;4.78;65.07;94380.56;5029981;28;20041;-74
2021/11/17 06:01:35;;;;;;;11.00;6.43;;;;;;;4.85;64.10;94381.06;5011994;28;21011;-75
2021/11/17 06:04:02;;;;;;;15.63;7.20;;;;;;;4.77;63.81;94373.69;4983504;28;20048;-75
2021/11/17 06:06:27;;;;;;;14.77;7.15;;;;;;;4.47;64.82;94374.44;4980318;28;20042;-74
2021/11/17 06:08:55;;;;;;;15.70;8.68;;;;;;;4.59;64.70;94379.50;4988240;28;20048;-74
2021/11/17 06:11:46;;;;;;;13.98;6.85;;;;;;;4.64;64.17;94368.97;5020463;28;20034;-75
2021/11/17 06:14:30;;;;;;;17.25;7.43;;;;;;;4.93;64.14;94377.94;5016040;28;20053;-76
2021/11/17 06:17:06;;;;;;;14.00;7.45;;;;;;;4.89;62.55;94368.19;5014856;28;20033;-73
2021/11/17 06:19:37;;;;;;;16.10;7.70;;;;;;;4.99;62.64;94376.84;5020263;28;20033;-75
2021/11/17 06:22:05;;;;;;;17.95;7.40;;;;;;;5.34;61.76;94389.22;5012325;28;20088;-76
2021/11/17 06:24:30;;;;;;;13.00;7.15;;;;;;;5.13;61.44;94375.28;5007790;28;20625;-76
2021/11/17 06:26:56;;;;;;;14.70;6.43;;;;;;;5.75;60.26;94387.31;5014424;28;20207;-75
2021/11/17 06:29:33;;;;;;;18.48;8.15;;;;;;;5.75;59.30;94400.50;5021050;28;20036;-75
2021/11/17 06:32:00;;;;;;;16.13;7.72;;;;;;;6.17;58.53;94396.69;5013135;28;20030;-75
2021/11/17 06:34:28;;;;;;;15.63;7.97;;;;;;;5.95;57.89;94411.00;5019011;28;20037;-76
2021/11/17 06:36:55;;;;;;;20.35;7.60;;;;;;;5.68;58.45;94394.69;5021806;28;20896;-74
2021/11/17 06:39:21;;;;;;;17.70;7.38;;;;;;;6.06;57.70;94411.75;5013404;28;20045;-72
2021/11/17 06:41:47;;;;;;;16.52;9.00;;;;;;;5.74;57.58;94369.88;5017371;28;20044;-74
2021/11/17 06:44:13;;;;;;;12.65;7.07;;;;;;;5.87;58.01;94414.19;5021775;28;20032;-76
2021/11/17 06:46:39;;;;;;;12.85;6.97;;;;;;;5.80;57.11;94400.50;5035535;28;20037;-76
2021/11/17 06:49:04;;;;;;;15.95;8.20;;;;;;;6.11;56.61;94392.47;5021356;28;20515;-75
2021/11/17 06:51:30;;;;;;;14.45;6.72;;;;;;;6.10;56.84;94410.16;5022677;28;20351;-75
2021/11/17 06:53:56;;;;;;;14.98;7.18;;;;;;;6.21;56.84;94410.94;5020784;28;20037;-75
2021/11/17 06:56:21;;;;;;;11.80;6.28;;;;;;;6.40;56.29;94402.13;5020343;28;20025;-75
2021/11/17 06:58:47;;;;;;;17.02;7.63;;;;;;;6.35;56.20;94414.56;5017128;28;20026;-77
2021/11/17 07:01:13;;;;;;;11.65;6.80;;;;;;;6.57;56.09;94409.69;5012729;28;20037;-76
2021/11/17 07:03:39;;;;;;;15.70;7.57;;;;;;;6.70;55.53;94400.38;5013084;28;20107;-76
2021/11/17 07:06:05;;;;;;;16.08;7.50;;;;;;;6.70;55.61;94410.97;5003398;28;20083;-74
2021/11/17 07:08:31;;;;;;;16.95;8.38;;;;;;;5.74;56.92;94385.72;5012037;28;20037;-75
2021/11/17 07:10:56;;;;;;;14.57;6.95;;;;;;;6.06;57.22;94418.91;5010528;28;20026;-75
2021/11/17 07:13:22;;;;;;;15.05;7.70;;;;;;;6.07;57.40;94415.97;5010466;28;20046;-75
2021/11/17 07:15:47;;;;;;;16.08;7.45;;;;;;;5.88;57.65;94399.13;5008523;28;20040;-75
2021/11/17 07:18:13;;;;;;;17.77;8.55;;;;;;;5.82;57.25;94395.72;5009032;28;20041;-75
2021/11/17 07:20:39;;;;;;;16.48;7.28;;;;;;;6.33;57.01;94400.84;5009347;28;20037;-75
2021/11/17 07:23:07;;;;;;;19.75;8.50;;;;;;;5.87;57.66;94414.19;5008592;28;20285;-75
2021/11/17 07:25:33;;;;;;;14.02;8.25;;;;;;;5.45;58.71;94408.47;5006439;28;20037;-75
2021/11/17 07:27:59;;;;;;;14.85;6.80;;;;;;;5.63;59.35;94423.75;5005284;28;20069;-75
2021/11/17 07:30:28;;;;;;;15.93;7.00;;;;;;;5.39;59.54;94414.81;5005429;28;20045;-75
2021/11/17 07:32:54;;;;;;;16.73;7.72;;;;;;;5.34;60.05;94414.81;5010300;28;20038;-75
2021/11/17 07:35:23;;;;;;;19.73;8.57;;;;;;;5.68;59.88;94394.69;5015675;28;20034;-75
2021/11/17 07:37:50;;;;;;;12.45;6.97;;;;;;;4.87;60.17;94342.06;5010478;28;21053;-75
2021/11/17 07:40:16;;;;;;;16.38;8.20;;;;;;;5.86;59.24;94412.63;5013183;28;20701;-75
2021/11/17 07:42:42;;;;;;;14.00;7.32;;;;;;;6.16;58.21;94426.81;5015184;28;20091;-74
2021/11/17 07:45:09;;;;;;;15.52;7.63;;;;;;;5.78;58.52;94425.56;5010853;28;20053;-73
2021/11/17 07:47:35;;;;;;;17.33;6.68;;;;;;;5.54;59.17;94426.13;5010197;28;20045;-75
2021/11/17 07:50:02;;;;;;;14.43;8.05;;;;;;;5.78;59.29;94426.34;5006667;28;20037;-74
2021/11/17 07:52:28;;;;;;;16.25;8.45;;;;;;;5.81;58.71;94420.56;5006763;28;20037;-75
2021/11/17 07:54:54;;;;;;;15.55;7.97;;;;;;;5.19;59.93;94381.31;5009669;28;20041;-75
2021/11/17 07:57:19;;;;;;;17.85;8.05;;;;;;;5.21;60.57;94410.88;5009663;28;20037;-75
2021/11/17 07:59:45;;;;;;;15.10;8.60;;;;;;;5.25;61.08;94422.47;5012336;28;20061;-74
2021/11/17 08:02:13;;;;;;;19.27;8.32;;;;;;;5.34;61.07;94428.78;5010429;28;20029;-75
2021/11/17 08:04:41;;;;;;;16.52;7.50;;;;;;;5.48;61.00;94429.06;5014580;28;20032;-77
2021/11/17 08:07:12;;;;;;;17.38;7.40;;;;;;;5.44;60.90;94420.06;5009333;28;20046;-75
2021/11/17 08:09:37;;;;;;;17.58;8.30;;;;;;;5.27;60.85;94411.66;5013959;28;20147;-74
2021/11/17 08:12:03;;;;;;;16.45;8.68;;;;;;;5.19;61.40;94409.56;5008052;28;20183;-74
2021/11/17 08:14:29;;;;;;;18.50;8.60;;;;;;;5.47;60.70;94419.56;5009901;28;20168;-75
2021/11/17 08:16:54;;;;;;;17.50;8.25;;;;;;;5.28;60.78;94426.44;5013108;28;20075;-75
2021/11/17 08:19:20;;;;;;;16.38;7.40;;;;;;;5.31;60.65;94413.50;5015067;28;20076;-75
2021/11/17 08:21:45;;;;;;;18.33;9.27;;;;;;;5.07;61.23;94421.16;5013074;28;20037;-75
2021/11/17 08:24:11;;;;;;;17.90;8.07;;;;;;;5.19;60.90;94430.66;5012915;28;20045;-74
2021/11/17 08:26:36;;;;;;;15.00;6.32;;;;;;;5.28;60.58;94437.00;5000903;28;20476;-75
2021/11/17 08:29:02;;;;;;;17.15;7.72;;;;;;;5.32;60.31;94430.91;5011056;28;20447;-74
2021/11/17 08:31:28;;;;;;;16.63;7.38;;;;;;;5.26;59.63;94421.41;5012137;28;20037;-74
2021/11/17 08:33:55;;;;;;;11.77;6.22;;;;;;;5.24;60.06;94410.34;5008090;28;20044;-75
2021/11/17 08:36:20;;;;;;;15.90;6.78;;;;;;;5.28;60.77;94437.00;5030789;28;21017;-75
2021/11/17 08:38:50;;;;;;;15.52;7.85;;;;;;;5.23;61.16;94437.78;5017140;28;20041;-75
2021/11/17 08:41:17;;;;;;;14.07;7.97;;;;;;;5.14;61.74;94431.44;5009789;28;20033;-74
2021/11/17 08:43:42;;;;;;;19.10;9.25;;;;;;;5.16;61.46;94439.09;5006530;28;20021;-76
2021/11/17 08:46:09;;;;;;;14.48;7.43;;;;;;;4.93;61.75;94420.09;5009989;28;20048;-73
2021/11/17 08:48:37;;;;;;;15.15;8.40;;;;;;;4.86;61.65;94424.84;5012467;28;20037;-75
2021/11/17 08:51:05;;;;;;;16.23;8.55;;;;;;;4.98;61.29;94445.69;5007746;28;20038;-73
2021/11/17 08:53:34;;;;;;;13.68;7.50;;;;;;;4.96;61.58;94435.38;5010419;28;20029;-74
2021/11/17 08:56:04;;;;;;;16.02;6.80;;;;;;;4.90;61.57;94423.25;4997507;28;20030;-75
2021/11/17 08:58:30;;;;;;;13.57;7.68;;;;;;;5.25;60.95;94438.28;5010202;28;20087;-75
2021/11/17 09:00:55;;;;;;;13.82;8.20;;;;;;;5.11;60.52;94431.97;5006782;28;20041;-75
2021/11/17 09:03:21;;;;;;;18.15;7.65;;;;;;;5.16;60.44;94439.09;5016281;28;20068;-75
2021/11/17 09:05:50;;;;;;;12.40;7.47;;;;;;;5.19;60.18;94420.88;5008505;28;20038;-74
2021/11/17 09:08:17;;;;;;;18.80;9.23;;;;;;;5.58;59.41;94429.03;5010054;28;20026;-75
2021/11/17 09:10:48;;;;;;;16.95;8.70;;;;;;;5.69;59.20;94433.25;5008042;28;20025;-75
2021/11/17 09:13:14;;;;;;;17.90;8.70;;;;;;;5.40;59.07;94430.38;5012502;28;20053;-75
2021/11/17 09:15:42;;;;;;;16.33;8.77;;;;;;;5.14;59.65;94426.16;5011161;28;20057;-74
2021/11/17 09:18:09;;;;;;;15.50;8.38;;;;;;;5.17;59.86;94430.13;5008943;28;20136;-74
2021/11/17 09:20:35;;;;;;;14.35;8.23;;;;;;;5.25;59.76;94416.41;5011804;28;20655;-74
2021/11/17 09:23:02;;;;;;;16.92;8.65;;;;;;;5.51;59.36;94420.59;5014982;28;20018;-75
2021/11/17 09:25:28;;;;;;;17.83;9.13;;;;;;;5.15;59.39;94393.47;5007833;28;20045;-73
2021/11/17 09:27:55;;;;;;;14.50;7.65;;;;;;;5.72;59.04;94424.81;5010380;28;20048;-75
2021/11/17 09:30:24;;;;;;;18.85;9.38;;;;;;;5.85;58.99;94429.50;5008714;28;20045;-74
2021/11/17 09:32:52;;;;;;;19.38;10.25;;;;;;;5.86;58.92;94423.19;5008086;28;20075;-75
2021/11/17 09:35:19;;;;;;;17.00;8.20;;;;;;;5.96;58.82;94411.81;5004818;28;20064;-75
2021/11/17 09:37:47;;;;;;;18.92;10.13;;;;;;;5.93;58.65;94421.03;5009197;28;20013;-74
2021/11/17 09:40:18;;;;;;;16.88;8.43;;;;;;;5.68;60.10;94399.97;5007876;28;20069;-74
2021/11/17 09:42:43;;;;;;;15.90;8.80;;;;;;;5.93;59.59;94407.03;5007212;28;20038;-74
2021/11/17 09:45:10;;;;;;;19.85;9.15;;;;;;;5.84;59.87;94420.00;5013581;28;20458;-75
2021/11/17 09:47:37;;;;;;;23.45;10.45;;;;;;;5.72;60.13;94419.53;5005974;28;20044;-75
2021/11/17 09:50:15;;;;;;;20.33;8.75;;;;;;;6.06;59.94;94417.03;5003396;28;20464;-76
2021/11/17 09:52:45;;;;;;;20.92;10.05;;;;;;;5.59;60.61;94412.16;5003096;28;20051;-74
2021/11/17 09:55:22;;;;;;;18.67;9.65;;;;;;;5.75;60.68;94407.63;5003414;28;20121;-75
2021/11/17 09:57:52;;;;;;;21.60;9.43;;;;;;;5.70;60.54;94400.50;5002939;28;20041;-76
2021/11/17 10:00:27;;;;;;;15.43;8.40;;;;;;;5.70;61.01;94400.50;5010620;28;20673;-73
2021/11/17 10:03:13;;;;;;;16.33;8.93;;;;;;;5.58;60.74;94368.34;5000976;28;20388;-74
2021/11/17 10:13:30;;;;;;;15.38;8.20;;;;;;;6.02;59.58;94375.59;5010027;28;20103;-75
2021/11/17 10:15:56;;;;;;;15.68;8.73;;;;;;;5.58;60.56;94384.97;5011092;28;20042;-75
2021/11/17 10:18:47;;;;;;;17.67;9.75;;;;;;;5.73;60.54;94378.84;5011574;28;20089;-75
2021/11/17 10:21:30;;;;;;;15.15;8.43;;;;;;;5.88;59.79;94372.72;5008801;28;20412;-75
2021/11/17 10:24:01;;;;;;;16.50;9.45;;;;;;;5.89;59.81;94375.13;5007640;28;20037;-76
2021/11/17 10:26:27;;;;;;;14.52;8.57;;;;;;;5.96;59.87;94370.34;5017649;28;20491;-75
2021/11/17 10:29:03;;;;;;;20.52;10.35;;;;;;;5.93;59.79;94370.06;5010018;28;20238;-75
2021/11/17 10:31:53;;;;;;;25.75;14.18;;;;;;;6.18;59.66;94361.28;5018915;28;20049;-75
2021/11/17 10:34:31;;;;;;;14.13;8.82;;;;;;;6.16;59.00;94358.16;5010241;28;20127;-75
2021/11/17 10:37:11;;;;;;;17.33;8.68;;;;;;;6.29;58.62;94358.34;5009553;28;20048;-73
2021/11/17 10:39:36;;;;;;;14.02;7.75;;;;;;;6.12;58.61;94360.47;5014822;28;20038;-75
2021/11/17 10:42:11;;;;;;;12.90;7.68;;;;;;;6.09;58.30;94361.03;5008225;28;20042;-75
2021/11/17 10:44:49;;;;;;;15.18;8.88;;;;;;;6.05;58.57;94357.38;5002371;28;20092;-74
2021/11/17 10:47:44;;;;;;;15.93;9.13;;;;;;;5.84;58.58;94354.00;5012031;28;20538;-75
2021/11/17 10:50:36;;;;;;;22.27;9.25;;;;;;;5.91;59.25;94351.88;5009524;28;20392;-73
2021/11/17 10:53:06;;;;;;;15.60;8.15;;;;;;;5.89;59.43;94347.91;5012745;28;20041;-75
2021/11/17 10:55:39;;;;;;;18.60;8.98;;;;;;;5.93;58.83;94348.97;5022428;28;20121;-75
2021/11/17 10:58:08;;;;;;;14.30;9.05;;;;;;;6.24;58.51;94339.06;5005854;28;20049;-76
2021/11/17 11:00:47;;;;;;;15.05;8.88;;;;;;;6.65;56.90;94350.19;5009249;28;20042;-76
2021/11/17 11:03:16;;;;;;;15.43;8.25;;;;;;;6.54;57.18;94349.47;5014321;28;20068;-75
2021/11/17 11:05:47;;;;;;;15.68;8.70;;;;;;;6.33;57.27;94348.00;5023365;28;20101;-75
2021/11/17 11:08:36;;;;;;;13.50;8.10;;;;;;;6.64;57.23;94341.47;5004870;28;20400;-73
2021/11/17 11:11:04;;;;;;;13.80;7.57;;;;;;;6.30;57.33;94332.72;5011311;28;20119;-75
2021/11/17 11:13:52;;;;;;;15.52;9.40;;;;;;;6.28;57.46;94329.53;5014187;28;20105;-73
2021/11/17 11:16:17;;;;;;;13.40;8.38;;;;;;;6.37;57.84;94327.91;5012944;28;20069;-75
2021/11/17 11:19:15;;;;;;;13.80;8.95;;;;;;;6.77;56.29;94327.63;5013885;28;20313;-74
2021/11/17 11:21:40;;;;;;;15.45;9.65;;;;;;;6.50;56.17;94326.50;5002661;28;20528;-75
2021/11/17 11:24:08;;;;;;;16.45;8.05;;;;;;;6.40;56.42;94330.00;5011656;28;20060;-75
2021/11/17 11:27:08;;;;;;;13.15;7.25;;;;;;;6.51;56.58;94334.13;5017300;28;20053;-76
2021/11/17 11:29:39;;;;;;;14.95;7.45;;;;;;;6.56;56.03;94326.19;5013856;28;20100;-76
2021/11/17 11:32:14;;;;;;;13.93;7.82;;;;;;;6.62;55.93;94319.81;5020535;28;20033;-75
2021/11/17 11:34:57;;;;;;;15.30;9.18;;;;;;;6.60;55.53;94315.88;5023685;28;20073;-75
2021/11/17 11:37:23;;;;;;;12.93;6.90;;;;;;;6.42;56.14;94314.66;5016478;28;20053;-76
2021/11/17 11:39:54;;;;;;;10.65;6.93;;;;;;;6.32;56.19;94298.88;5021846;28;20030;-75
2021/11/17 11:43:10;;;;;;;18.55;8.52;;;;;;;6.33;56.18;94284.59;5013093;28;20626;-76
2021/11/17 11:45:43;;;;;;;11.52;7.18;;;;;;;6.40;56.20;94316.78;4984645;28;20501;-75
2021/11/17 11:48:51;;;;;;;12.82;7.20;;;;;;;6.23;56.23;94305.78;5003611;28;20064;-74
2021/11/17 11:51:22;;;;;;;11.90;7.05;;;;;;;6.66;56.02;94304.97;5015570;28;20033;-75
2021/11/17 11:54:15;;;;;;;13.73;7.53;;;;;;;6.74;56.33;94301.75;5012991;28;20044;-75
2021/11/17 11:56:49;;;;;;;13.30;7.43;;;;;;;6.55;55.45;94287.63;5016233;28;20040;-75
2021/11/17 11:59:26;;;;;;;15.07;7.30;;;;;;;6.52;55.50;94293.44;5016253;28;20030;-75
2021/11/17 12:02:08;;;;;;;12.98;7.75;;;;;;;6.40;56.04;94303.59;5012706;28;20025;-75
2021/11/17 12:04:39;;;;;;;13.07;8.48;;;;;;;6.40;56.18;94298.31;5008612;28;20607;-75
2021/11/17 12:07:10;;;;;;;13.95;8.55;;;;;;;6.25;56.63;94304.47;5010074;28;20044;-75
2021/11/17 12:09:52;;;;;;;13.10;7.40;;;;;;;6.07;57.20;94302.41;5010795;28;20041;-74
2021/11/17 12:12:22;;;;;;;17.23;8.15;;;;;;;5.89;57.88;94301.19;5012871;28;20053;-73
2021/11/17 12:14:52;;;;;;;13.63;7.85;;;;;;;6.32;57.48;94301.50;5007637;28;20061;-73
2021/11/17 12:17:24;;;;;;;17.15;8.43;;;;;;;6.64;56.44;94299.19;5010939;28;20029;-74
2021/11/17 12:19:56;;;;;;;16.70;8.75;;;;;;;7.10;55.70;94298.78;5010668;28;20411;-74
2021/11/17 12:22:43;;;;;;;11.32;6.75;;;;;;;7.20;54.60;94298.69;5008520;28;20037;-75
2021/11/17 12:25:20;;;;;;;15.50;7.68;;;;;;;7.43;54.06;94291.84;5010538;28;20052;-75
2021/11/17 12:27:49;;;;;;;13.23;7.03;;;;;;;6.98;54.50;94301.81;5010863;28;20041;-76
2021/11/17 12:30:39;;;;;;;12.88;7.95;;;;;;;7.02;53.83;94252.56;5014268;28;20053;-74
2021/11/17 12:33:20;;;;;;;12.88;8.00;;;;;;;7.04;54.05;94273.47;5014453;28;20042;-77
2021/11/17 12:36:06;;;;;;;16.77;10.63;;;;;;;7.45;53.35;94290.47;5017823;28;20061;-75
2021/11/17 12:38:37;;;;;;;13.32;7.80;;;;;;;7.38;53.01;94282.09;5013366;28;20033;-76
2021/11/17 12:41:23;;;;;;;12.73;7.07;;;;;;;7.27;53.45;94281.41;5013355;28;20052;-75
2021/11/17 12:43:57;;;;;;;22.00;11.45;;;;;;;7.45;53.50;94284.41;5011627;28;20041;-74
2021/11/17 12:46:30;;;;;;;18.10;9.73;;;;;;;8.08;52.44;94266.44;5009073;28;20099;-76
2021/11/17 12:49:13;;;;;;;10.40;7.03;;;;;;;8.07;51.57;94275.47;5011496;28;20148;-76
2021/11/17 12:52:06;;;;;;;10.05;7.18;;;;;;;7.39;52.74;94272.28;5014907;28;20052;-76
2021/11/17 12:54:41;;;;;;;13.15;7.60;;;;;;;7.28;53.37;94287.50;5012539;28;20041;-75
2021/11/17 12:57:15;;;;;;;13.02;7.60;;;;;;;7.16;53.71;94276.50;5012017;28;20700;-76
2021/11/17 12:59:48;;;;;;;15.35;8.00;;;;;;;6.93;54.26;94269.31;5019001;28;20446;-76
2021/11/17 13:02:36;;;;;;;16.90;8.05;;;;;;;6.75;54.24;94276.88;5011828;28;20189;-75
2021/11/17 13:05:17;;;;;;;13.23;7.85;;;;;;;6.67;54.59;94298.63;5014648;28;20041;-76
2021/11/17 13:07:47;;;;;;;13.05;7.43;;;;;;;6.43;55.77;94300.38;4994313;28;20045;-75
2021/11/17 13:10:38;;;;;;;14.32;7.65;;;;;;;6.50;56.01;94292.94;5007196;28;20131;-75
2021/11/17 13:13:19;;;;;;;23.27;9.93;;;;;;;6.26;56.53;94302.63;5001479;28;20450;-76
2021/11/17 13:15:50;;;;;;;16.17;8.35;;;;;;;6.01;57.25;94298.25;5017364;28;20076;-74
2021/11/17 13:18:36;;;;;;;13.35;7.70;;;;;;;6.08;57.26;94297.91;5015468;28;20034;-74
2021/11/17 13:21:26;;;;;;;12.55;8.50;;;;;;;5.77;58.29;94299.94;5013024;28;20587;-74
2021/11/17 13:24:16;;;;;;;18.55;8.25;;;;;;;5.61;58.82;94304.50;5007722;28;20440;-73
2021/11/17 13:26:50;;;;;;;17.33;7.95;;;;;;;5.63;59.01;94291.78;5013590;28;20547;-76
2021/11/17 13:29:27;;;;;;;18.38;8.27;;;;;;;5.69;59.12;94296.00;5013220;28;20594;-74
2021/11/17 13:32:15;;;;;;;18.67;8.30;;;;;;;5.69;58.66;94285.44;5011074;28;20107;-75
2021/11/17 13:34:45;;;;;;;14.27;8.40;;;;;;;5.65;58.83;94287.06;5015660;28;20041;-75
2021/11/17 13:37:36;;;;;;;17.45;7.88;;;;;;;6.05;58.07;94285.28;5010356;28;20095;-75
2021/11/17 13:40:10;;;;;;;14.13;7.45;;;;;;;6.19;58.15;94283.63;5009184;28;20709;-73
2021/11/17 13:42:36;;;;;;;14.55;8.18;;;;;;;6.52;56.86;94282.88;5008627;28;20584;-75
2021/11/17 13:45:17;;;;;;;14.05;8.38;;;;;;;6.38;56.37;94279.28;5010711;28;20065;-75
2021/11/17 13:47:44;;;;;;;14.43;7.55;;;;;;;6.00;57.22;94247.28;5002633;28;20030;-74
2021/11/17 13:50:11;;;;;;;11.88;7.10;;;;;;;6.37;56.86;94281.13;5009045;28;20060;-76
2021/11/17 13:52:39;;;;;;;17.55;9.98;;;;;;;6.47;56.59;94267.06;5000584;28;20136;-74
2021/11/17 13:55:09;;;;;;;13.10;8.02;;;;;;;6.45;56.75;94276.34;5008903;28;20440;-75
2021/11/17 13:57:36;;;;;;;15.32;8.95;;;;;;;5.87;57.13;94229.38;5015181;28;20041;-75
2021/11/17 14:00:04;;;;;;;27.40;11.43;;;;;;;6.20;57.16;94269.38;5014227;28;20033;-75
2021/11/17 14:02:29;;;;;;;17.65;9.63;;;;;;;6.26;57.05;94269.03;5016265;28;20543;-76
2021/11/17 14:04:55;;;;;;;15.73;8.48;;;;;;;5.91;57.51;94267.41;5013932;28;20045;-75
2021/11/17 14:07:21;;;;;;;13.18;8.07;;;;;;;6.16;57.96;94284.19;5016406;28;20104;-76
2021/11/17 14:09:47;;;;;;;15.10;8.55;;;;;;;6.02;57.75;94283.19;5012442;28;20037;-75
2021/11/17 14:12:13;;;;;;;18.48;10.35;;;;;;;5.83;58.31;94283.78;5014836;28;20291;-75
2021/11/17 14:14:39;;;;;;;13.75;7.43;;;;;;;5.95;58.03;94262.38;5013784;28;20054;-74
2021/11/17 14:17:06;;;;;;;15.48;7.50;;;;;;;6.11;57.85;94276.28;5013910;28;20488;-75
2021/11/17 14:19:33;;;;;;;14.77;7.53;;;;;;;5.96;57.90;94280.56;5009682;28;20521;-75
2021/11/17 14:21:58;;;;;;;13.18;6.82;;;;;;;5.97;58.10;94281.34;5011655;28;20115;-75
2021/11/17 14:24:24;;;;;;;17.63;8.60;;;;;;;6.09;57.95;94287.09;5009107;28;20156;-75
2021/11/17 14:26:51;;;;;;;16.85;8.70;;;;;;;5.92;58.01;94265.56;5013135;28;20401;-73
2021/11/17 14:29:22;;;;;;;14.20;8.00;;;;;;;5.86;58.36;94259.50;5011372;28;20041;-76
2021/11/17 14:31:56;;;;;;;14.05;7.90;;;;;;;5.89;58.55;94280.06;5006674;28;20030;-75
2021/11/17 14:34:22;;;;;;;15.05;8.57;;;;;;;6.00;58.26;94278.19;5012049;28;20450;-75
2021/11/17 14:36:51;;;;;;;17.30;9.35;;;;;;;6.06;58.26;94276.31;5011364;28;20701;-76
2021/11/17 14:39:19;;;;;;;15.85;9.00;;;;;;;6.05;57.88;94267.59;5014458;28;20046;-75
2021/11/17 14:41:46;;;;;;;13.85;7.88;;;;;;;5.96;58.40;94291.13;5013622;28;20049;-73
2021/11/17 14:44:13;;;;;;;20.15;8.90;;;;;;;5.82;58.59;94268.25;5015240;28;20029;-74
2021/11/17 14:46:40;;;;;;;18.70;8.38;;;;;;;6.42;57.59;94278.44;5008034;28;20283;-75